createdAt,value
2022-08-19T00:01:32.639Z,40.96
2022-08-19T00:04:07.941Z,42.37
2022-08-19T00:06:36.591Z,43.14
2022-08-19T00:09:05.175Z,42.12
2022-08-19T00:11:32.237Z,42.34
2022-08-19T00:14:00.056Z,43.56
2022-08-19T00:16:27.444Z,41.70
2022-08-19T00:18:57.632Z,39.66
2022-08-19T00:21:25.674Z,39.37
2022-08-19T00:23:53.117Z,42.56
2022-08-19T00:26:20.223Z,44.64
2022-08-19T00:28:48.259Z,54.91
2022-08-19T00:31:15.150Z,46.87
2022-08-19T00:33:42.645Z,47.12
2022-08-19T00:36:10.706Z,44.63
2022-08-19T00:38:39.427Z,45.35
2022-08-19T00:41:07.372Z,43.96
2022-08-19T00:43:34.670Z,42.12
2022-08-19T00:46:05.877Z,41.54
2022-08-19T00:48:33.640Z,40.82
2022-08-19T00:51:01.351Z,42.29
2022-08-19T00:53:30.530Z,42.18
2022-08-19T00:55:59.857Z,41.28
2022-08-19T00:58:30.546Z,42.31
2022-08-19T01:00:57.449Z,41.35
2022-08-19T01:03:24.530Z,40.72
2022-08-19T01:05:53.292Z,41.26
2022-08-19T01:08:21.338Z,41.71
2022-08-19T01:10:56.858Z,42.18
2022-08-19T01:13:49.517Z,41.84
2022-08-19T01:16:18.992Z,41.03
2022-08-19T01:18:46.005Z,40.13
2022-08-19T01:21:36.361Z,41.28
2022-08-19T01:24:03.437Z,42.50
2022-08-19T01:26:31.191Z,41.25
2022-08-19T01:29:00.788Z,40.00
2022-08-19T01:31:33.086Z,39.75
2022-08-19T01:34:01.655Z,39.51
2022-08-19T01:36:34.048Z,41.47
2022-08-19T01:39:02.904Z,40.31
2022-08-19T01:41:29.861Z,41.04
2022-08-19T01:44:09.925Z,42.56
2022-08-19T01:46:45.548Z,42.98
2022-08-19T01:49:12.627Z,41.28
2022-08-19T01:51:40.407Z,41.24
2022-08-19T01:54:09.606Z,42.10
2022-08-19T01:56:36.783Z,42.33
2022-08-19T01:59:06.946Z,42.84
2022-08-19T02:01:35.845Z,42.29
2022-08-19T02:04:03.484Z,41.22
2022-08-19T02:06:30.954Z,40.08
2022-08-19T02:08:58.608Z,40.23
2022-08-19T02:11:32.738Z,40.92
2022-08-19T02:14:01.244Z,42.72
2022-08-19T02:16:28.265Z,42.71
2022-08-19T02:18:55.905Z,41.53
2022-08-19T02:21:24.677Z,40.44
2022-08-19T02:23:51.864Z,40.48
2022-08-19T02:26:19.990Z,42.02
2022-08-19T02:28:47.266Z,42.50
2022-08-19T02:31:19.186Z,42.17
2022-08-19T02:33:46.710Z,41.50
2022-08-19T02:36:15.518Z,40.60
2022-08-19T02:38:47.152Z,41.59
2022-08-19T02:41:25.096Z,41.30
2022-08-19T02:44:23.012Z,41.17
2022-08-19T02:46:42.331Z,41.15
2022-08-19T02:49:09.607Z,43.01
2022-08-19T02:51:39.819Z,42.95
2022-08-19T02:54:10.021Z,41.82
2022-08-19T02:56:38.510Z,42.50
2022-08-19T02:59:11.133Z,41.65
2022-08-19T03:01:41.792Z,43.47
2022-08-19T03:04:11.250Z,45.94
2022-08-19T03:06:39.592Z,45.72
2022-08-19T03:09:06.628Z,48.54
2022-08-19T03:11:34.328Z,49.06
2022-08-19T03:14:02.066Z,49.23
2022-08-19T03:16:33.566Z,51.64
2022-08-19T03:19:02.003Z,53.47
2022-08-19T03:21:31.518Z,50.62
2022-08-19T03:24:00.770Z,51.88
2022-08-19T03:26:27.936Z,48.32
2022-08-19T03:28:58.544Z,45.06
2022-08-19T03:31:41.600Z,43.75
2022-08-19T03:34:19.477Z,43.38
2022-08-19T03:36:47.327Z,42.68
2022-08-19T03:39:14.337Z,42.56
2022-08-19T03:41:45.337Z,44.37
2022-08-19T03:44:19.536Z,45.68
2022-08-19T03:46:58.564Z,45.98
2022-08-19T03:49:29.148Z,45.27
2022-08-19T03:51:57.851Z,42.36
2022-08-19T03:54:25.730Z,42.45
2022-08-19T03:56:54.742Z,42.80
2022-08-19T03:59:29.262Z,42.06
2022-08-19T04:01:58.162Z,44.32
2022-08-19T04:04:29.038Z,45.02
2022-08-19T04:06:56.739Z,53.75
2022-08-19T04:09:23.669Z,49.07
2022-08-19T04:11:56.567Z,47.37
2022-08-19T04:14:31.425Z,44.66
2022-08-19T04:17:00.263Z,43.42
2022-08-19T04:19:27.921Z,43.76
2022-08-19T04:21:55.774Z,44.70
2022-08-19T04:24:23.673Z,45.17
2022-08-19T04:26:50.764Z,45.16
2022-08-19T04:29:28.084Z,44.97
2022-08-19T04:31:57.050Z,44.83
2022-08-19T04:34:26.767Z,43.68
2022-08-19T04:36:56.054Z,44.39
2022-08-19T04:39:48.326Z,43.63
2022-08-19T04:42:35.914Z,42.95
2022-08-19T04:45:04.044Z,46.58
2022-08-19T04:47:47.698Z,42.87
2022-08-19T04:50:21.387Z,42.18
2022-08-19T04:52:48.304Z,40.94
2022-08-19T04:55:15.663Z,37.99
2022-08-19T04:57:42.766Z,39.65
2022-08-19T05:00:10.875Z,39.29
2022-08-19T05:02:39.053Z,37.51
2022-08-19T05:05:07.750Z,36.97
2022-08-19T05:07:34.981Z,38.34
2022-08-19T05:10:02.163Z,41.94
2022-08-19T05:12:29.996Z,40.94
2022-08-19T05:14:58.643Z,40.41
2022-08-19T05:17:29.009Z,40.00
2022-08-19T05:20:16.246Z,43.00
2022-08-19T05:22:45.125Z,42.15
2022-08-19T05:25:15.747Z,43.16
2022-08-19T05:27:43.290Z,43.27
2022-08-19T05:30:11.659Z,44.76
2022-08-19T05:32:39.842Z,42.92
2022-08-19T05:35:07.332Z,41.17
2022-08-19T05:37:34.284Z,41.15
2022-08-19T05:40:01.377Z,40.73
2022-08-19T05:42:28.331Z,40.51
2022-08-19T05:44:55.285Z,39.24
2022-08-19T05:47:22.424Z,37.49
2022-08-19T05:49:51.073Z,37.11
2022-08-19T05:52:18.975Z,37.49
2022-08-19T05:54:51.276Z,37.02
2022-08-19T05:57:19.914Z,37.26
2022-08-19T05:59:52.862Z,38.32
2022-08-19T06:02:24.930Z,39.42
2022-08-19T06:04:51.872Z,37.36
2022-08-19T06:07:18.810Z,36.79
2022-08-19T06:09:59.705Z,36.34
2022-08-19T06:12:34.198Z,34.98
2022-08-19T06:15:03.298Z,35.73
2022-08-19T06:17:31.949Z,34.71
2022-08-19T06:19:59.776Z,35.60
2022-08-19T06:22:27.978Z,34.10
2022-08-19T06:24:56.465Z,35.59
2022-08-19T06:27:23.607Z,35.22
2022-08-19T06:29:50.879Z,35.39
2022-08-19T06:32:19.785Z,35.12
2022-08-19T06:34:46.907Z,36.18
2022-08-19T06:37:14.360Z,35.43
2022-08-19T06:39:45.595Z,35.13
2022-08-19T06:42:17.823Z,35.07
2022-08-19T06:44:48.903Z,35.06
2022-08-19T06:47:23.195Z,35.90
2022-08-19T06:49:53.574Z,33.15
2022-08-19T06:52:21.041Z,33.98
2022-08-19T06:54:56.152Z,34.85
2022-08-19T06:57:27.016Z,34.01
2022-08-19T06:59:54.119Z,34.01
2022-08-19T07:02:21.851Z,34.01
2022-08-19T07:04:52.857Z,30.97
2022-08-19T07:07:21.742Z,31.80
2022-08-19T07:09:51.829Z,30.90
2022-08-19T07:12:29.665Z,30.93
2022-08-19T07:14:59.073Z,33.13
2022-08-19T07:17:26.787Z,33.64
2022-08-19T07:19:54.762Z,32.98
2022-08-19T07:22:23.866Z,33.44
2022-08-19T07:24:54.676Z,31.45
2022-08-19T07:27:24.311Z,30.65
2022-08-19T07:29:56.005Z,31.90
2022-08-19T07:32:27.774Z,31.31
2022-08-19T07:34:56.396Z,32.95
2022-08-19T07:37:27.363Z,33.37
2022-08-19T07:39:56.596Z,34.59
2022-08-19T07:42:23.762Z,32.92
2022-08-19T07:44:51.167Z,33.05
2022-08-19T07:47:49.207Z,31.84
2022-08-19T07:50:08.922Z,30.32
2022-08-19T07:52:37.346Z,29.51
2022-08-19T07:55:06.012Z,29.98
2022-08-19T07:57:33.056Z,31.76
2022-08-19T08:00:00.336Z,29.75
2022-08-19T08:02:39.746Z,29.86
2022-08-19T08:05:28.646Z,29.20
2022-08-19T08:08:14.621Z,27.93
2022-08-19T08:10:41.719Z,28.64
2022-08-19T08:13:11.172Z,28.41
2022-08-19T08:15:42.985Z,29.89
2022-08-19T08:18:14.578Z,28.77
2022-08-19T08:20:41.681Z,28.67
2022-08-19T08:23:23.935Z,28.81
2022-08-19T08:25:51.146Z,28.79
2022-08-19T08:28:20.694Z,29.05
2022-08-19T08:30:50.886Z,27.49
2022-08-19T08:33:34.331Z,27.75
2022-08-19T08:36:12.035Z,27.66
2022-08-19T08:38:40.857Z,25.89
2022-08-19T08:41:32.861Z,24.74
2022-08-19T08:44:00.261Z,25.10
2022-08-19T08:46:37.363Z,24.33
2022-08-19T08:49:29.439Z,24.15
2022-08-19T08:52:05.909Z,23.40
2022-08-19T08:54:54.666Z,24.33
2022-08-19T08:57:40.794Z,24.05
2022-08-19T09:00:17.680Z,23.14
2022-08-19T09:02:50.916Z,22.57
2022-08-19T09:05:22.177Z,22.42
2022-08-19T09:08:06.845Z,23.10
2022-08-19T09:10:44.245Z,22.15
2022-08-19T09:13:37.633Z,21.46
2022-08-19T09:16:14.195Z,20.78
2022-08-19T09:18:48.269Z,21.66
2022-08-19T09:21:16.493Z,21.54
2022-08-19T09:23:44.908Z,22.96
2022-08-19T09:26:16.575Z,22.23
2022-08-19T09:28:45.575Z,23.00
2022-08-19T09:31:19.110Z,22.82
2022-08-19T09:33:46.973Z,22.57
2022-08-19T09:36:24.348Z,22.09
2022-08-19T09:39:02.264Z,22.87
2022-08-19T09:41:29.783Z,24.35
2022-08-19T09:43:58.385Z,23.03
2022-08-19T09:46:28.885Z,23.00
2022-08-19T09:49:02.952Z,25.05
2022-08-19T09:51:35.044Z,23.45
2022-08-19T09:54:05.628Z,23.73
2022-08-19T09:56:34.115Z,22.57
2022-08-19T09:59:02.370Z,23.65
2022-08-19T10:01:31.384Z,22.33
2022-08-19T10:03:59.841Z,22.50
2022-08-19T10:06:45.901Z,21.55
2022-08-19T10:09:15.532Z,22.00
2022-08-19T10:11:52.580Z,22.71
2022-08-19T10:14:23.644Z,23.09
2022-08-19T10:16:51.886Z,22.66
2022-08-19T10:19:25.305Z,23.36
2022-08-19T10:21:53.821Z,23.68
2022-08-19T10:24:21.993Z,24.55
2022-08-19T10:26:57.227Z,24.71
2022-08-19T10:29:33.001Z,24.71
2022-08-19T10:32:09.653Z,24.82
2022-08-19T10:34:48.710Z,25.42
2022-08-19T10:37:23.507Z,25.84
2022-08-19T10:39:51.420Z,26.11
2022-08-19T10:42:19.747Z,25.92
2022-08-19T10:44:47.832Z,25.19
2022-08-19T10:47:17.206Z,26.03
2022-08-19T10:50:11.781Z,25.74
2022-08-19T10:52:49.629Z,25.80
2022-08-19T10:55:37.696Z,25.58
2022-08-19T10:58:05.012Z,25.54
2022-08-19T11:00:32.652Z,26.08
2022-08-19T11:02:59.684Z,26.42
2022-08-19T11:05:26.602Z,25.70
2022-08-19T11:07:53.782Z,25.41
2022-08-19T11:10:22.056Z,24.75
2022-08-19T11:12:49.981Z,24.17
2022-08-19T11:15:17.155Z,25.11
2022-08-19T11:17:44.901Z,24.78
2022-08-19T11:20:15.644Z,24.71
2022-08-19T11:22:43.385Z,25.32
2022-08-19T11:25:12.072Z,25.00
2022-08-19T11:27:42.895Z,25.91
2022-08-19T11:30:13.280Z,26.01
2022-08-19T11:32:44.688Z,26.56
2022-08-19T11:35:15.624Z,27.88
2022-08-19T11:37:42.641Z,29.57
2022-08-19T11:40:10.433Z,29.73
2022-08-19T11:42:56.030Z,31.28
2022-08-19T11:45:24.209Z,30.92
2022-08-19T11:47:51.172Z,31.07
2022-08-19T11:50:18.945Z,30.17
2022-08-19T11:52:46.294Z,30.65
2022-08-19T11:55:14.741Z,29.15
2022-08-19T11:57:44.860Z,28.32
2022-08-19T12:00:14.048Z,28.00
2022-08-19T12:02:41.588Z,27.78
2022-08-19T12:05:12.256Z,28.63
2022-08-19T12:07:40.853Z,28.76
2022-08-19T12:10:08.715Z,28.58
2022-08-19T12:12:36.147Z,29.33
2022-08-19T12:15:03.604Z,28.05
2022-08-19T12:17:31.969Z,27.65
2022-08-19T12:19:59.012Z,27.72
2022-08-19T12:22:25.937Z,28.13
2022-08-19T12:24:54.360Z,28.19
2022-08-19T12:27:32.030Z,28.90
2022-08-19T12:30:09.168Z,29.41
2022-08-19T12:32:36.159Z,29.60
2022-08-19T12:35:03.958Z,30.41
2022-08-19T12:37:32.829Z,30.15
2022-08-19T12:40:00.498Z,30.37
2022-08-19T12:42:27.603Z,30.82
2022-08-19T12:44:54.746Z,31.15
2022-08-19T12:47:22.218Z,32.40
2022-08-19T12:49:54.671Z,33.46
2022-08-19T12:52:24.871Z,34.71
2022-08-19T12:54:54.086Z,34.59
2022-08-19T12:57:32.027Z,33.96
2022-08-19T13:00:16.455Z,33.30
2022-08-19T13:02:55.117Z,32.44
2022-08-19T13:05:25.633Z,32.66
2022-08-19T13:07:57.017Z,32.83
2022-08-19T13:10:28.909Z,33.13
2022-08-19T13:12:56.096Z,33.29
2022-08-19T13:15:24.694Z,32.54
2022-08-19T13:17:53.726Z,33.24
2022-08-19T13:20:22.281Z,34.41
2022-08-19T13:22:49.956Z,37.96
2022-08-19T13:25:37.959Z,40.19
2022-08-19T13:28:08.215Z,45.26
2022-08-19T13:30:58.240Z,45.24
2022-08-19T13:33:26.838Z,44.23
2022-08-19T13:35:59.080Z,45.78
2022-08-19T13:38:26.028Z,44.51
2022-08-19T13:40:56.937Z,45.35
2022-08-19T13:43:26.834Z,44.51
2022-08-19T13:45:57.611Z,44.53
2022-08-19T13:48:28.148Z,45.75
2022-08-19T13:50:55.451Z,44.40
2022-08-19T13:53:22.671Z,40.38
2022-08-19T13:55:51.575Z,40.12
2022-08-19T13:58:18.489Z,41.29
2022-08-19T14:00:46.896Z,38.08
2022-08-19T14:03:14.080Z,39.23
2022-08-19T14:05:41.287Z,40.69
2022-08-19T14:08:08.339Z,39.70
2022-08-19T14:10:35.295Z,41.22
2022-08-19T14:13:04.197Z,42.49
2022-08-19T14:15:31.754Z,47.60
2022-08-19T14:17:58.803Z,47.72
2022-08-19T14:20:26.470Z,48.73
2022-08-19T14:22:54.170Z,48.80
2022-08-19T14:25:24.538Z,48.74
2022-08-19T14:27:51.590Z,48.18
2022-08-19T14:30:22.536Z,46.66
2022-08-19T14:32:49.483Z,47.24
2022-08-19T14:35:17.193Z,46.39
2022-08-19T14:37:46.325Z,43.70
2022-08-19T14:40:18.539Z,43.45
2022-08-19T14:42:45.553Z,42.78
2022-08-19T14:45:13.501Z,44.48
2022-08-19T14:47:40.793Z,45.79
2022-08-19T14:50:10.464Z,44.97
2022-08-19T14:52:42.172Z,44.53
2022-08-19T14:55:09.630Z,43.28
2022-08-19T14:57:36.668Z,44.70
2022-08-19T15:00:05.099Z,42.82
2022-08-19T15:02:34.438Z,41.58
2022-08-19T15:05:02.912Z,41.52
2022-08-19T15:07:30.463Z,41.05
2022-08-19T15:09:57.959Z,40.79
2022-08-19T15:12:25.093Z,40.83
2022-08-19T15:14:55.784Z,41.10
2022-08-19T15:17:35.345Z,43.95
2022-08-19T15:20:11.095Z,53.74
2022-08-19T15:22:38.458Z,54.72
2022-08-19T15:25:07.239Z,52.86
2022-08-19T15:27:34.206Z,45.01
2022-08-19T15:30:01.785Z,46.14
2022-08-19T15:32:29.273Z,46.96
2022-08-19T15:34:56.363Z,47.29
2022-08-19T15:37:24.170Z,48.37
2022-08-19T15:39:51.858Z,54.22
2022-08-19T15:42:30.111Z,53.85
2022-08-19T15:45:00.618Z,55.57
2022-08-19T15:47:34.715Z,58.33
2022-08-19T15:50:17.175Z,55.80
2022-08-19T15:52:59.155Z,56.33
2022-08-19T15:55:33.772Z,54.53
2022-08-19T15:58:28.335Z,59.75
2022-08-19T16:01:20.627Z,60.63
2022-08-19T16:04:14.300Z,59.67
2022-08-19T16:06:45.993Z,57.84
2022-08-19T16:09:13.389Z,55.06
2022-08-19T16:11:45.508Z,55.60
2022-08-19T16:14:14.401Z,55.67
2022-08-19T16:16:41.444Z,55.22
2022-08-19T16:19:10.396Z,54.50
2022-08-19T16:21:41.630Z,52.46
2022-08-19T16:24:12.177Z,54.62
2022-08-19T16:26:40.333Z,54.87
2022-08-19T16:29:12.967Z,51.15
2022-08-19T16:31:42.483Z,53.39
2022-08-19T16:34:09.777Z,54.47
2022-08-19T16:36:37.179Z,53.27
2022-08-19T16:39:04.145Z,49.92
2022-08-19T16:41:31.142Z,49.70
2022-08-19T16:43:58.036Z,49.52
2022-08-19T16:46:27.105Z,52.41
2022-08-19T16:48:54.751Z,52.49
2022-08-19T16:51:23.088Z,51.48
2022-08-19T16:53:53.149Z,51.06
2022-08-19T16:56:21.580Z,48.85
2022-08-19T16:58:50.657Z,48.41
2022-08-19T17:01:18.639Z,49.85
2022-08-19T17:03:46.175Z,55.11
2022-08-19T17:06:20.879Z,54.53
2022-08-19T17:08:49.849Z,51.03
2022-08-19T17:11:18.840Z,53.46
2022-08-19T17:13:47.921Z,54.37
2022-08-19T17:16:16.377Z,49.44
2022-08-19T17:18:43.381Z,50.33
2022-08-19T17:21:10.369Z,49.26
2022-08-19T17:23:43.529Z,52.34
2022-08-19T17:26:18.447Z,52.48
2022-08-19T17:28:49.252Z,48.79
2022-08-19T17:31:16.775Z,50.13
2022-08-19T17:33:48.043Z,45.99
2022-08-19T17:36:18.817Z,43.39
2022-08-19T17:38:45.922Z,43.50
2022-08-19T17:41:12.839Z,42.14
2022-08-19T17:43:43.291Z,42.93
2022-08-19T17:46:20.590Z,43.11
2022-08-19T17:48:54.787Z,40.61
2022-08-19T17:51:23.725Z,41.00
2022-08-19T17:53:53.139Z,43.19
2022-08-19T17:56:20.567Z,46.36
2022-08-19T17:58:51.152Z,44.24
2022-08-19T18:01:26.758Z,42.56
2022-08-19T18:03:57.088Z,43.33
2022-08-19T18:06:24.106Z,44.77
2022-08-19T18:08:51.157Z,46.19
2022-08-19T18:11:18.074Z,44.58
2022-08-19T18:13:45.137Z,44.38
2022-08-19T18:16:12.584Z,45.11
2022-08-19T18:18:41.107Z,43.77
2022-08-19T18:21:08.629Z,46.14
2022-08-19T18:23:44.405Z,48.07
2022-08-19T18:26:13.103Z,43.60
2022-08-19T18:28:49.976Z,45.33
2022-08-19T18:31:17.816Z,48.17
2022-08-19T18:33:45.510Z,51.96
2022-08-19T18:36:12.447Z,51.57
2022-08-19T18:38:58.040Z,52.43
2022-08-19T18:41:44.880Z,49.36
2022-08-19T18:44:44.004Z,49.69
2022-08-19T18:47:29.710Z,51.59
2022-08-19T18:49:56.714Z,51.84
2022-08-19T18:52:25.727Z,52.71
2022-08-19T18:54:52.866Z,53.18
2022-08-19T18:57:24.989Z,56.22
2022-08-19T18:59:53.914Z,60.19
2022-08-19T19:02:22.515Z,60.12
2022-08-19T19:04:49.817Z,55.48
2022-08-19T19:07:18.572Z,55.94
2022-08-19T19:09:50.572Z,55.10
2022-08-19T19:12:18.485Z,54.93
2022-08-19T19:14:49.557Z,55.56
2022-08-19T19:17:17.246Z,55.66
2022-08-19T19:19:44.339Z,50.04
2022-08-19T19:22:13.924Z,48.35
2022-08-19T19:24:44.743Z,47.00
2022-08-19T19:27:13.234Z,49.16
2022-08-19T19:29:41.628Z,51.00
2022-08-19T19:32:17.069Z,50.24
2022-08-19T19:34:44.187Z,50.49
2022-08-19T19:37:11.101Z,47.17
2022-08-19T19:39:46.333Z,50.15
2022-08-19T19:42:20.682Z,48.45
2022-08-19T19:44:50.949Z,50.16
2022-08-19T19:47:19.147Z,51.05
2022-08-19T19:50:12.805Z,50.62
2022-08-19T19:52:34.736Z,46.91
2022-08-19T19:55:01.697Z,49.67
2022-08-19T19:57:30.535Z,49.73
2022-08-19T19:59:58.445Z,48.64
2022-08-19T20:02:25.420Z,51.09
2022-08-19T20:04:53.093Z,51.27
2022-08-19T20:07:39.962Z,52.23
2022-08-19T20:10:07.145Z,52.81
2022-08-19T20:12:35.134Z,56.79
2022-08-19T20:15:02.432Z,57.09
2022-08-19T20:17:29.375Z,56.91
2022-08-19T20:19:57.657Z,59.61
2022-08-19T20:22:25.973Z,62.37
2022-08-19T20:24:55.777Z,61.27
2022-08-19T20:27:25.807Z,62.22
2022-08-19T20:29:56.181Z,59.82
2022-08-19T20:32:23.669Z,61.74
2022-08-19T20:34:50.821Z,59.90
2022-08-19T20:37:17.763Z,60.43
2022-08-19T20:39:44.812Z,60.21
2022-08-19T20:42:11.770Z,62.99
2022-08-19T20:44:38.677Z,62.92
2022-08-19T20:47:05.800Z,62.49
2022-08-19T20:49:32.832Z,60.62
2022-08-19T20:52:00.465Z,62.65
2022-08-19T20:54:27.796Z,64.76
2022-08-19T20:56:55.028Z,65.43
2022-08-19T20:59:23.093Z,68.02
2022-08-19T21:01:52.004Z,75.77
2022-08-19T21:04:20.490Z,79.73
2022-08-19T21:06:48.148Z,81.39
2022-08-19T21:09:15.466Z,79.32
2022-08-19T21:11:42.440Z,76.69
2022-08-19T21:14:09.365Z,77.36
2022-08-19T21:16:36.316Z,80.19
2022-08-19T21:19:04.703Z,83.61
2022-08-19T21:21:33.229Z,80.92
2022-08-19T21:24:00.252Z,76.66
2022-08-19T21:26:27.449Z,79.32
2022-08-19T21:28:54.338Z,82.01
2022-08-19T21:31:21.324Z,79.13
2022-08-19T21:33:48.265Z,80.49
2022-08-19T21:36:15.209Z,83.12
2022-08-19T21:38:42.274Z,85.30
2022-08-19T21:41:09.211Z,80.55
2022-08-19T21:43:37.594Z,84.38
2022-08-19T21:46:05.302Z,86.08
2022-08-19T21:48:33.027Z,88.20
2022-08-19T21:50:59.962Z,87.69
2022-08-19T21:53:34.329Z,85.25
2022-08-19T21:56:02.553Z,83.68
2022-08-19T21:58:30.525Z,84.44
2022-08-19T22:00:59.391Z,83.61
2022-08-19T22:03:26.965Z,78.02
2022-08-19T22:05:53.937Z,80.34
2022-08-19T22:08:20.893Z,80.52
2022-08-19T22:10:49.922Z,76.26
2022-08-19T22:13:18.445Z,76.40
2022-08-19T22:15:50.549Z,72.68
2022-08-19T22:18:17.913Z,70.38
2022-08-19T22:20:45.533Z,67.73
2022-08-19T22:23:12.472Z,72.15
2022-08-19T22:25:41.641Z,69.32
2022-08-19T22:28:13.449Z,61.95
2022-08-19T22:30:43.124Z,61.01
2022-08-19T22:33:13.175Z,58.67
2022-08-19T22:35:41.506Z,58.74
2022-08-19T22:38:10.369Z,59.27
2022-08-19T22:40:39.809Z,58.80
2022-08-19T22:43:22.499Z,56.82
2022-08-19T22:45:50.565Z,56.82
2022-08-19T22:48:20.037Z,56.95
2022-08-19T22:51:08.316Z,56.47
2022-08-19T22:53:37.328Z,56.08
2022-08-19T22:56:13.172Z,58.49
2022-08-19T22:58:42.591Z,59.88
2022-08-19T23:01:10.964Z,58.31
2022-08-19T23:03:40.189Z,58.83
2022-08-19T23:06:07.508Z,58.62
2022-08-19T23:08:37.595Z,62.50
2022-08-19T23:11:05.011Z,62.21
2022-08-19T23:13:32.304Z,61.51
2022-08-19T23:15:59.632Z,60.19
2022-08-19T23:18:26.964Z,63.66
2022-08-19T23:20:54.651Z,66.02
2022-08-19T23:23:25.010Z,67.26
2022-08-19T23:25:53.774Z,67.92
2022-08-19T23:28:40.451Z,69.04
2022-08-19T23:31:08.307Z,67.74
2022-08-19T23:33:46.623Z,67.23
2022-08-19T23:36:19.068Z,65.79
2022-08-19T23:38:48.275Z,67.42
2022-08-19T23:41:16.458Z,69.51
2022-08-19T23:43:44.617Z,69.11
2022-08-19T23:46:13.670Z,70.81
2022-08-19T23:48:40.697Z,71.03
2022-08-19T23:51:09.996Z,69.04
2022-08-19T23:53:38.416Z,69.54
2022-08-19T23:56:07.398Z,70.68
2022-08-19T23:58:35.832Z,70.67
